createdAt,value
2018-11-27T00:00:16.571Z,101583.02
2018-11-27T00:01:17.191Z,101584.53
2018-11-27T00:02:17.762Z,101586.03
2018-11-27T00:03:18.235Z,101587.12
2018-11-27T00:04:18.838Z,101588.46
2018-11-27T00:05:18.957Z,101589.30
2018-11-27T00:06:19.659Z,101589.87
2018-11-27T00:07:20.046Z,101590.83
2018-11-27T00:08:20.566Z,101591.57
2018-11-27T00:09:21.225Z,101592.66
2018-11-27T00:10:21.609Z,101593.41
2018-11-27T00:11:22.236Z,101594.43
2018-11-27T00:12:23.172Z,101595.59
2018-11-27T00:12:31.251Z,101609.81
2018-11-27T00:13:32.722Z,101606.48
2018-11-27T00:14:33.417Z,101606.81
2018-11-27T00:15:34.013Z,101607.15
2018-11-27T00:16:34.629Z,101607.56
2018-11-27T00:17:35.354Z,101607.59
2018-11-27T00:18:36.154Z,101607.49
2018-11-27T00:19:36.702Z,101607.91
2018-11-27T00:20:37.096Z,101608.02
2018-11-27T00:21:37.189Z,101608.09
2018-11-27T00:22:37.318Z,101608.34
2018-11-27T00:23:37.321Z,101608.78
2018-11-27T00:24:38.120Z,101608.69
2018-11-27T00:25:38.740Z,101609.45
2018-11-27T00:26:39.245Z,101610.05
2018-11-27T00:27:39.897Z,101610.66
2018-11-27T00:28:40.663Z,101611.09
2018-11-27T00:29:41.226Z,101611.17
2018-11-27T00:30:41.651Z,101612.52
2018-11-27T00:31:41.073Z,101613.54
2018-11-27T00:32:42.575Z,101614.39
2018-11-27T00:33:42.580Z,101615.47
2018-11-27T00:34:43.217Z,101616.69
2018-11-27T00:35:43.736Z,101617.11
2018-11-27T00:36:44.326Z,101618.21
2018-11-27T00:37:44.734Z,101619.28
2018-11-27T00:38:45.380Z,101620.16
2018-11-27T00:39:45.884Z,101620.67
2018-11-27T00:40:46.406Z,101620.68
2018-11-27T00:41:47.147Z,101621.42
2018-11-27T00:42:47.916Z,101622.35
2018-11-27T00:43:48.795Z,101622.70
2018-11-27T00:44:49.451Z,101622.96
2018-11-27T00:45:49.948Z,101623.13
2018-11-27T00:46:50.481Z,101623.57
2018-11-27T00:47:50.953Z,101624.17
2018-11-27T00:48:51.707Z,101625.27
2018-11-27T00:49:52.198Z,101625.50
2018-11-27T00:50:52.686Z,101626.36
2018-11-27T00:51:53.181Z,101627.19
2018-11-27T00:52:53.816Z,101627.45
2018-11-27T00:53:54.308Z,101627.64
2018-11-27T00:54:58.712Z,101628.05
2018-11-27T00:55:54.550Z,101628.72
2018-11-27T00:56:56.281Z,101629.47
2018-11-27T00:57:56.254Z,101629.97
2018-11-27T00:58:56.885Z,101630.41
2018-11-27T00:59:05.360Z,101639.27
2018-11-27T01:00:06.820Z,101644.81
2018-11-27T01:01:07.491Z,101644.22
2018-11-27T01:02:08.007Z,101643.88
2018-11-27T01:03:08.535Z,101643.81
2018-11-27T01:04:09.084Z,101643.31
2018-11-27T01:05:09.682Z,101642.97
2018-11-27T01:06:10.298Z,101643.31
2018-11-27T01:07:11.179Z,101643.36
2018-11-27T01:08:11.860Z,101642.86
2018-11-27T01:09:12.398Z,101642.52
2018-11-27T01:10:13.225Z,101643.12
2018-11-27T01:11:13.323Z,101642.78
2018-11-27T01:12:14.004Z,101642.95
2018-11-27T01:13:14.372Z,101642.62
2018-11-27T01:14:14.653Z,101642.70
2018-11-27T01:15:15.594Z,101642.70
2018-11-27T01:16:16.207Z,101642.70
2018-11-27T01:17:16.858Z,101643.13
2018-11-27T01:18:17.434Z,101643.13
2018-11-27T01:19:18.047Z,101643.13
2018-11-27T01:20:18.665Z,101642.70
2018-11-27T01:21:19.413Z,101642.70
2018-11-27T01:22:19.854Z,101642.70
2018-11-27T01:23:20.377Z,101642.20
2018-11-27T01:24:20.874Z,101642.04
2018-11-27T01:25:21.530Z,101642.54
2018-11-27T01:26:22.028Z,101642.78
2018-11-27T01:27:22.532Z,101643.86
2018-11-27T01:28:23.136Z,101644.39
2018-11-27T01:29:23.791Z,101644.80
2018-11-27T01:30:24.416Z,101644.82
2018-11-27T01:31:24.944Z,101645.91
2018-11-27T01:32:25.357Z,101646.22
2018-11-27T01:33:25.837Z,101647.08
2018-11-27T01:34:25.883Z,101646.84
2018-11-27T01:35:26.646Z,101647.92
2018-11-27T01:36:27.164Z,101648.02
2018-11-27T01:37:27.389Z,101648.52
2018-11-27T01:38:27.880Z,101649.46
2018-11-27T01:39:28.408Z,101649.95
2018-11-27T01:40:28.975Z,101650.56
2018-11-27T01:41:29.647Z,101651.31
2018-11-27T01:42:30.092Z,101652.22
2018-11-27T01:43:30.608Z,101652.97
2018-11-27T01:43:38.959Z,101672.02
2018-11-27T01:44:40.407Z,101665.84
2018-11-27T01:45:41.113Z,101666.50
2018-11-27T01:46:41.729Z,101666.34
2018-11-27T01:47:42.129Z,101666.59
2018-11-27T01:48:42.835Z,101667.16
2018-11-27T01:49:43.745Z,101667.58
2018-11-27T01:50:44.365Z,101668.08
2018-11-27T01:51:44.815Z,101668.42
2018-11-27T01:52:45.255Z,101668.92
2018-11-27T01:53:45.872Z,101669.52
2018-11-27T01:54:46.305Z,101670.11
2018-11-27T01:55:46.789Z,101670.66
2018-11-27T01:56:47.266Z,101671.16
2018-11-27T01:57:47.817Z,101671.28
2018-11-27T01:58:48.225Z,101671.95
2018-11-27T01:59:48.469Z,101673.01
2018-11-27T02:00:48.937Z,101673.67
2018-11-27T02:01:49.437Z,101674.29
2018-11-27T02:02:50.265Z,101674.78
2018-11-27T02:03:50.678Z,101675.47
2018-11-27T02:04:51.126Z,101676.30
2018-11-27T02:05:51.681Z,101676.81
2018-11-27T02:06:52.647Z,101677.47
2018-11-27T02:07:53.233Z,101678.08
2018-11-27T02:08:53.698Z,101678.23
2018-11-27T02:09:54.245Z,101678.59
2018-11-27T02:10:54.919Z,101679.17
2018-11-27T02:11:55.536Z,101679.25
2018-11-27T02:13:00.961Z,101679.48
2018-11-27T02:13:55.643Z,101679.27
2018-11-27T02:14:57.107Z,101679.60
2018-11-27T02:15:57.937Z,101679.60
2018-11-27T02:16:58.606Z,101679.66
2018-11-27T02:17:59.363Z,101679.83
2018-11-27T02:19:00.223Z,101680.16
2018-11-27T02:20:00.513Z,101680.16
2018-11-27T02:21:01.231Z,101680.59
2018-11-27T02:22:01.669Z,101680.16
2018-11-27T02:23:02.359Z,101680.66
2018-11-27T02:24:02.992Z,101681.00
2018-11-27T02:25:03.743Z,101680.44
2018-11-27T02:26:04.315Z,101680.52
2018-11-27T02:27:05.166Z,101680.42
2018-11-27T02:28:05.189Z,101681.43
2018-11-27T02:28:13.582Z,101683.81
2018-11-27T02:29:15.113Z,101684.83
2018-11-27T02:30:15.685Z,101684.23
2018-11-27T02:31:16.136Z,101684.40
2018-11-27T02:32:16.617Z,101684.17
2018-11-27T02:33:16.137Z,101684.09
2018-11-27T02:34:17.560Z,101684.50
2018-11-27T02:35:18.131Z,101684.58
2018-11-27T02:36:18.677Z,101685.02
2018-11-27T02:37:19.431Z,101685.27
2018-11-27T02:38:19.786Z,101685.00
2018-11-27T02:39:20.401Z,101685.00
2018-11-27T02:40:20.805Z,101684.84
2018-11-27T02:41:21.322Z,101685.00
2018-11-27T02:42:21.970Z,101684.36
2018-11-27T02:43:22.509Z,101685.19
2018-11-27T02:44:23.013Z,101685.10
2018-11-27T02:45:23.511Z,101684.84
2018-11-27T02:46:23.963Z,101684.84
2018-11-27T02:47:23.933Z,101684.45
2018-11-27T02:48:24.714Z,101684.53
2018-11-27T02:49:25.427Z,101684.29
2018-11-27T02:50:26.009Z,101684.37
2018-11-27T02:51:26.780Z,101684.02
2018-11-27T02:52:27.373Z,101683.96
2018-11-27T02:53:28.212Z,101684.20
2018-11-27T02:54:28.652Z,101683.89
2018-11-27T02:55:29.024Z,101683.80
2018-11-27T02:56:29.552Z,101683.71
2018-11-27T02:57:30.022Z,101683.54
2018-11-27T02:58:30.582Z,101683.06
2018-11-27T02:59:31.106Z,101683.06
2018-11-27T03:00:31.123Z,101682.30
2018-11-27T03:01:31.423Z,101682.13
2018-11-27T03:02:32.047Z,101682.13
2018-11-27T03:03:32.712Z,101681.88
2018-11-27T03:04:33.082Z,101681.95
2018-11-27T03:05:33.393Z,101682.62
2018-11-27T03:06:33.798Z,101683.06
2018-11-27T03:07:34.249Z,101683.90
2018-11-27T03:08:34.726Z,101684.14
2018-11-27T03:09:35.328Z,101684.39
2018-11-27T03:10:35.897Z,101684.47
2018-11-27T03:11:36.515Z,101684.58
2018-11-27T03:12:37.173Z,101685.06
2018-11-27T03:13:37.576Z,101685.07
2018-11-27T03:13:45.961Z,101692.32
2018-11-27T03:14:46.680Z,101687.16
2018-11-27T03:15:47.448Z,101687.16
2018-11-27T03:16:48.034Z,101687.49
2018-11-27T03:17:48.569Z,101687.66
2018-11-27T03:18:49.007Z,101687.91
2018-11-27T03:19:49.373Z,101688.66
2018-11-27T03:20:49.732Z,101688.83
2018-11-27T03:21:50.318Z,101689.00
2018-11-27T03:22:50.775Z,101689.50
2018-11-27T03:23:50.187Z,101689.67
2018-11-27T03:24:51.585Z,101689.41
2018-11-27T03:25:52.237Z,101690.19
2018-11-27T03:26:52.657Z,101690.43
2018-11-27T03:27:53.201Z,101690.67
2018-11-27T03:28:53.798Z,101690.86
2018-11-27T03:29:54.149Z,101691.27
2018-11-27T03:30:54.663Z,101691.86
2018-11-27T03:31:55.083Z,101692.86
2018-11-27T03:32:55.749Z,101693.20
2018-11-27T03:33:55.123Z,101694.37
2018-11-27T03:34:56.555Z,101695.02
2018-11-27T03:35:57.050Z,101695.52
2018-11-27T03:36:57.503Z,101696.36
2018-11-27T03:37:57.658Z,101697.29
2018-11-27T03:38:58.266Z,101698.22
2018-11-27T03:39:57.645Z,101699.82
2018-11-27T03:40:59.079Z,101700.59
2018-11-27T03:41:59.622Z,101701.48
2018-11-27T03:42:59.113Z,101702.59
2018-11-27T03:44:00.602Z,101703.09
2018-11-27T03:45:00.737Z,101704.09
2018-11-27T03:46:01.607Z,101705.11
2018-11-27T03:47:02.017Z,101705.22
2018-11-27T03:48:02.388Z,101706.06
2018-11-27T03:49:02.821Z,101706.23
2018-11-27T03:50:03.356Z,101706.98
2018-11-27T03:51:03.882Z,101707.77
2018-11-27T03:52:04.311Z,101708.10
2018-11-27T03:53:04.699Z,101708.69
2018-11-27T03:54:05.167Z,101709.19
2018-11-27T03:55:05.440Z,101709.95
2018-11-27T03:56:05.858Z,101710.88
2018-11-27T03:57:06.847Z,101711.70
2018-11-27T03:58:07.425Z,101712.56
2018-11-27T03:59:07.914Z,101713.30
2018-11-27T04:00:08.255Z,101714.39
2018-11-27T04:01:08.700Z,101715.16
2018-11-27T04:01:17.123Z,101733.14
2018-11-27T04:02:17.909Z,101734.33
2018-11-27T04:03:18.348Z,101733.83
2018-11-27T04:04:18.957Z,101733.89
2018-11-27T04:05:19.350Z,101733.48
2018-11-27T04:06:19.591Z,101732.64
2018-11-27T04:07:20.140Z,101732.47
2018-11-27T04:08:20.733Z,101731.64
2018-11-27T04:09:21.300Z,101731.40
2018-11-27T04:10:21.882Z,101731.29
2018-11-27T04:11:22.569Z,101731.21
2018-11-27T04:12:22.065Z,101731.30
2018-11-27T04:13:23.694Z,101731.14
2018-11-27T04:14:24.264Z,101731.14
2018-11-27T04:15:24.913Z,101731.05
2018-11-27T04:16:25.362Z,101730.78
2018-11-27T04:17:25.876Z,101731.13
2018-11-27T04:18:26.472Z,101731.45
2018-11-27T04:19:27.127Z,101731.73
2018-11-27T04:20:27.286Z,101731.80
2018-11-27T04:21:27.869Z,101731.83
2018-11-27T04:22:28.537Z,101731.91
2018-11-27T04:23:29.008Z,101732.14
2018-11-27T04:24:28.428Z,101732.72
2018-11-27T04:25:29.848Z,101733.24
2018-11-27T04:26:30.337Z,101733.56
2018-11-27T04:27:30.735Z,101733.91
2018-11-27T04:28:31.323Z,101734.23
2018-11-27T04:29:31.922Z,101734.67
2018-11-27T04:30:32.645Z,101734.66
2018-11-27T04:31:33.213Z,101735.11
2018-11-27T04:32:33.834Z,101735.09
2018-11-27T04:33:34.391Z,101734.94
2018-11-27T04:34:34.800Z,101735.59
2018-11-27T04:35:35.369Z,101735.45
2018-11-27T04:36:36.182Z,101735.54
2018-11-27T04:37:36.836Z,101735.77
2018-11-27T04:38:37.717Z,101735.70
2018-11-27T04:39:38.135Z,101735.63
2018-11-27T04:40:39.014Z,101736.11
2018-11-27T04:41:39.449Z,101736.03
2018-11-27T04:42:39.872Z,101736.13
2018-11-27T04:43:40.607Z,101735.80
2018-11-27T04:44:41.095Z,101736.22
2018-11-27T04:45:41.792Z,101736.14
2018-11-27T04:46:42.548Z,101736.75
2018-11-27T04:46:50.606Z,101748.52
2018-11-27T04:47:52.302Z,101749.67
2018-11-27T04:48:52.993Z,101749.28
2018-11-27T04:49:53.481Z,101749.51
2018-11-27T04:50:53.896Z,101749.11
2018-11-27T04:51:54.357Z,101749.36
2018-11-27T04:52:55.062Z,101749.34
2018-11-27T04:53:55.540Z,101749.19
2018-11-27T04:54:55.970Z,101749.17
2018-11-27T04:55:56.574Z,101749.03
2018-11-27T04:56:57.040Z,101749.10
2018-11-27T04:57:57.426Z,101749.13
2018-11-27T04:58:57.627Z,101749.27
2018-11-27T04:59:58.092Z,101749.55
2018-11-27T05:00:58.581Z,101749.87
2018-11-27T05:01:59.136Z,101749.79
2018-11-27T05:02:59.532Z,101750.37
2018-11-27T05:04:00.269Z,101750.39
2018-11-27T05:05:00.739Z,101751.13
2018-11-27T05:06:01.171Z,101750.98
2018-11-27T05:07:01.670Z,101751.30
2018-11-27T05:08:02.321Z,101751.15
2018-11-27T05:09:02.917Z,101750.80
2018-11-27T05:10:03.180Z,101751.08
2018-11-27T05:11:03.739Z,101751.16
2018-11-27T05:12:04.503Z,101750.89
2018-11-27T05:13:04.885Z,101750.82
2018-11-27T05:14:05.337Z,101750.48
2018-11-27T05:15:05.737Z,101750.32
2018-11-27T05:16:06.244Z,101750.25
2018-11-27T05:17:06.958Z,101750.51
2018-11-27T05:18:07.642Z,101750.34
2018-11-27T05:19:08.051Z,101750.43
2018-11-27T05:20:08.578Z,101751.25
2018-11-27T05:21:09.042Z,101751.34
2018-11-27T05:22:09.752Z,101751.86
2018-11-27T05:23:10.259Z,101752.60
2018-11-27T05:24:10.873Z,101753.18
2018-11-27T05:25:11.334Z,101754.02
2018-11-27T05:26:11.810Z,101754.77
2018-11-27T05:27:12.527Z,101755.70
2018-11-27T05:28:13.103Z,101756.09
2018-11-27T05:29:13.731Z,101756.78
2018-11-27T05:30:14.332Z,101757.44
2018-11-27T05:31:14.894Z,101758.20
2018-11-27T05:31:23.307Z,101775.34
2018-11-27T05:32:24.734Z,101773.86
2018-11-27T05:33:25.315Z,101773.53
2018-11-27T05:34:25.980Z,101773.52
2018-11-27T05:35:26.404Z,101773.77
2018-11-27T05:36:26.812Z,101774.20
2018-11-27T05:37:27.196Z,101774.42
2018-11-27T05:38:27.634Z,101775.18
2018-11-27T05:39:28.147Z,101775.25
2018-11-27T05:40:27.693Z,101776.09
2018-11-27T05:41:28.135Z,101777.43
2018-11-27T05:42:29.208Z,101778.04
2018-11-27T05:43:30.115Z,101779.20
2018-11-27T05:44:30.513Z,101780.36
2018-11-27T05:45:31.069Z,101780.62
2018-11-27T05:46:31.513Z,101781.60
2018-11-27T05:47:31.893Z,101782.79
2018-11-27T05:48:32.396Z,101783.72
2018-11-27T05:49:33.294Z,101784.53
2018-11-27T05:50:33.884Z,101785.22
2018-11-27T05:51:34.411Z,101786.20
2018-11-27T05:52:34.871Z,101787.55
2018-11-27T05:53:35.311Z,101788.81
2018-11-27T05:54:35.910Z,101789.20
2018-11-27T05:55:36.369Z,101790.48
2018-11-27T05:56:37.088Z,101790.80
2018-11-27T05:57:37.573Z,101791.48
2018-11-27T05:58:38.011Z,101792.56
2018-11-27T05:59:38.426Z,101793.25
2018-11-27T06:00:38.885Z,101794.07
2018-11-27T06:01:39.389Z,101795.25
2018-11-27T06:02:39.955Z,101796.17
2018-11-27T06:03:40.657Z,101796.81
2018-11-27T06:04:41.123Z,101797.76
2018-11-27T06:05:41.505Z,101798.50
2018-11-27T06:06:41.551Z,101799.08
2018-11-27T06:07:42.158Z,101800.08
2018-11-27T06:08:42.772Z,101800.52
2018-11-27T06:09:43.700Z,101801.19
2018-11-27T06:10:44.296Z,101801.60
2018-11-27T06:11:44.892Z,101802.60
2018-11-27T06:12:45.798Z,101803.44
2018-11-27T06:13:46.203Z,101804.11
2018-11-27T06:14:46.764Z,101805.27
2018-11-27T06:15:47.191Z,101806.19
2018-11-27T06:16:47.816Z,101807.78
2018-11-27T06:17:48.465Z,101808.70
2018-11-27T06:18:48.152Z,101809.60
2018-11-27T06:18:56.200Z,101832.14
2018-11-27T06:19:57.626Z,101826.13
2018-11-27T06:20:58.050Z,101826.30
2018-11-27T06:21:58.758Z,101826.55
2018-11-27T06:22:59.621Z,101826.98
2018-11-27T06:24:00.120Z,101827.15
2018-11-27T06:25:00.652Z,101827.57
2018-11-27T06:26:01.281Z,101827.80
2018-11-27T06:27:02.082Z,101828.66
2018-11-27T06:28:02.503Z,101829.14
2018-11-27T06:29:03.135Z,101829.66
2018-11-27T06:30:03.563Z,101830.56
2018-11-27T06:31:03.988Z,101831.39
2018-11-27T06:32:04.538Z,101831.48
2018-11-27T06:33:04.954Z,101832.56
2018-11-27T06:34:05.357Z,101833.08
2018-11-27T06:35:05.905Z,101834.16
2018-11-27T06:36:06.300Z,101835.00
2018-11-27T06:37:06.782Z,101835.90
2018-11-27T06:38:07.345Z,101837.25
2018-11-27T06:39:07.803Z,101838.15
2018-11-27T06:40:08.263Z,101838.58
2018-11-27T06:41:09.012Z,101839.16
2018-11-27T06:42:09.449Z,101840.16
2018-11-27T06:43:09.433Z,101840.75
2018-11-27T06:44:10.265Z,101841.51
2018-11-27T06:45:10.740Z,101841.94
2018-11-27T06:46:11.149Z,101842.66
2018-11-27T06:47:11.595Z,101843.33
2018-11-27T06:48:12.097Z,101844.26
2018-11-27T06:49:13.085Z,101845.52
2018-11-27T06:50:13.689Z,101846.19
2018-11-27T06:51:14.427Z,101847.41
2018-11-27T06:52:14.876Z,101848.94
2018-11-27T06:53:15.337Z,101850.03
2018-11-27T06:54:15.863Z,101851.42
2018-11-27T06:55:16.238Z,101852.43
2018-11-27T06:56:16.810Z,101853.77
2018-11-27T06:57:16.525Z,101855.86
2018-11-27T06:58:17.518Z,101857.03
2018-11-27T06:59:18.146Z,101858.20
2018-11-27T07:00:18.553Z,101859.20
2018-11-27T07:01:19.008Z,101860.71
2018-11-27T07:02:19.419Z,101861.88
2018-11-27T07:03:20.004Z,101862.73
2018-11-27T07:03:30.051Z,101875.25
2018-11-27T07:04:31.434Z,101881.60
2018-11-27T07:05:31.780Z,101881.01
2018-11-27T07:06:32.455Z,101881.36
2018-11-27T07:07:33.049Z,101881.28
2018-11-27T07:08:33.540Z,101881.69
2018-11-27T07:09:34.332Z,101881.59
2018-11-27T07:10:34.773Z,101881.77
2018-11-27T07:11:35.215Z,101882.60
2018-11-27T07:12:35.622Z,101883.17
2018-11-27T07:13:36.260Z,101883.67
2018-11-27T07:14:36.594Z,101884.34
2018-11-27T07:15:37.185Z,101885.02
2018-11-27T07:16:38.035Z,101886.34
2018-11-27T07:17:38.629Z,101887.44
2018-11-27T07:18:39.003Z,101888.88
2018-11-27T07:19:39.533Z,101889.70
2018-11-27T07:20:39.991Z,101890.71
2018-11-27T07:21:40.481Z,101891.88
2018-11-27T07:22:40.906Z,101893.05
2018-11-27T07:23:41.382Z,101894.22
2018-11-27T07:24:41.909Z,101895.39
2018-11-27T07:25:42.469Z,101897.06
2018-11-27T07:26:42.947Z,101898.23
2018-11-27T07:27:43.341Z,101899.48
2018-11-27T07:28:43.774Z,101901.22
2018-11-27T07:29:44.303Z,101902.48
2018-11-27T07:30:44.881Z,101904.58
2018-11-27T07:31:45.720Z,101906.01
2018-11-27T07:32:45.854Z,101907.52
2018-11-27T07:33:46.224Z,101908.34
2018-11-27T07:34:46.349Z,101909.34
2018-11-27T07:35:46.362Z,101910.52
2018-11-27T07:36:46.531Z,101911.75
2018-11-27T07:37:47.204Z,101913.08
2018-11-27T07:38:47.790Z,101914.18
2018-11-27T07:39:48.272Z,101915.11
2018-11-27T07:40:48.760Z,101915.87
2018-11-27T07:41:49.252Z,101917.02
2018-11-27T07:42:49.673Z,101918.12
2018-11-27T07:43:50.121Z,101918.51
2018-11-27T07:44:50.591Z,101919.20
2018-11-27T07:45:55.210Z,101919.62
2018-11-27T07:46:50.736Z,101920.44
2018-11-27T07:47:52.213Z,101921.36
2018-11-27T07:48:52.639Z,101922.04
2018-11-27T07:49:01.799Z,101947.58
2018-11-27T07:50:01.207Z,101933.58
2018-11-27T07:51:02.715Z,101933.48
2018-11-27T07:52:03.252Z,101934.24
2018-11-27T07:53:03.671Z,101934.58
2018-11-27T07:54:04.070Z,101934.91
2018-11-27T07:55:04.556Z,101935.97
2018-11-27T07:56:04.984Z,101936.31
2018-11-27T07:57:05.492Z,101937.14
2018-11-27T07:58:05.969Z,101937.64
2018-11-27T07:59:06.440Z,101938.31
2018-11-27T08:00:06.998Z,101939.15
2018-11-27T08:01:07.664Z,101939.98
2018-11-27T08:02:08.116Z,101940.48
2018-11-27T08:03:08.501Z,101941.41
2018-11-27T08:04:09.212Z,101942.08
2018-11-27T08:05:09.218Z,101942.51
2018-11-27T08:06:09.633Z,101942.83
2018-11-27T08:07:10.143Z,101943.68
2018-11-27T08:08:10.489Z,101943.83
2018-11-27T08:09:11.021Z,101944.09
2018-11-27T08:10:11.476Z,101945.17
2018-11-27T08:11:11.874Z,101946.19
2018-11-27T08:12:12.471Z,101946.34
2018-11-27T08:13:13.095Z,101947.03
2018-11-27T08:14:13.575Z,101948.28
2018-11-27T08:15:14.291Z,101948.59
2018-11-27T08:16:15.218Z,101949.02
2018-11-27T08:17:16.061Z,101950.20
2018-11-27T08:18:16.547Z,101951.27
2018-11-27T08:19:17.138Z,101951.77
2018-11-27T08:20:17.600Z,101953.05
2018-11-27T08:21:18.181Z,101953.77
2018-11-27T08:22:18.688Z,101954.12
2018-11-27T08:23:19.628Z,101954.95
2018-11-27T08:24:20.072Z,101955.60
2018-11-27T08:25:20.556Z,101956.45
2018-11-27T08:26:21.041Z,101956.72
2018-11-27T08:27:21.578Z,101957.54
2018-11-27T08:28:22.144Z,101958.05
2018-11-27T08:29:22.706Z,101958.55
2018-11-27T08:30:23.206Z,101958.79
2018-11-27T08:31:23.816Z,101959.20
2018-11-27T08:32:24.276Z,101959.28
2018-11-27T08:33:24.485Z,101959.97
2018-11-27T08:33:32.822Z,101976.00
2018-11-27T08:34:33.516Z,101972.65
2018-11-27T08:35:34.016Z,101972.59
2018-11-27T08:36:34.630Z,101972.76
2018-11-27T08:37:35.289Z,101972.33
2018-11-27T08:38:35.789Z,101973.43
2018-11-27T08:39:36.520Z,101973.26
2018-11-27T08:40:37.461Z,101973.82
2018-11-27T08:41:40.248Z,101974.58
2018-11-27T08:42:38.019Z,101975.17
2018-11-27T08:43:39.515Z,101975.33
2018-11-27T08:44:39.959Z,101976.08
2018-11-27T08:45:40.489Z,101976.52
2018-11-27T08:46:40.952Z,101976.76
2018-11-27T08:47:41.566Z,101977.27
2018-11-27T08:48:42.123Z,101977.43
2018-11-27T08:49:42.590Z,101977.94
2018-11-27T08:50:43.041Z,101978.10
2018-11-27T08:51:43.585Z,101978.83
2018-11-27T08:52:46.644Z,101979.33
2018-11-27T08:53:43.696Z,101979.77
2018-11-27T08:54:44.831Z,101980.33
2018-11-27T08:55:45.804Z,101981.00
2018-11-27T08:56:46.485Z,101981.83
2018-11-27T08:57:46.861Z,101982.59
2018-11-27T08:58:47.233Z,101982.77
2018-11-27T08:59:47.978Z,101983.36
2018-11-27T09:00:48.723Z,101983.92
2018-11-27T09:01:48.901Z,101983.84
2018-11-27T09:02:49.555Z,101984.00
2018-11-27T09:03:50.394Z,101984.42
2018-11-27T09:04:50.737Z,101985.58
2018-11-27T09:05:51.192Z,101985.59
2018-11-27T09:06:51.375Z,101986.08
2018-11-27T09:07:51.726Z,101987.00
2018-11-27T09:08:52.153Z,101987.73
2018-11-27T09:09:52.692Z,101987.98
2018-11-27T09:10:53.193Z,101988.77
2018-11-27T09:11:56.711Z,101989.56
2018-11-27T09:12:53.441Z,101990.41
2018-11-27T09:13:00.894Z,102000.64
2018-11-27T09:14:00.874Z,102006.18
2018-11-27T09:15:02.363Z,102005.68
2018-11-27T09:16:02.745Z,102005.73
2018-11-27T09:17:03.153Z,102006.16
2018-11-27T09:18:04.009Z,102006.25
2018-11-27T09:19:04.521Z,102006.23
2018-11-27T09:20:04.993Z,102007.09
2018-11-27T09:21:05.408Z,102006.91
2018-11-27T09:22:05.883Z,102007.31
2018-11-27T09:23:06.269Z,102007.81
2018-11-27T09:24:06.737Z,102008.23
2018-11-27T09:25:07.210Z,102008.08
2018-11-27T09:26:07.571Z,102007.72
2018-11-27T09:27:08.321Z,102008.00
2018-11-27T09:28:08.860Z,102008.41
2018-11-27T09:29:09.310Z,102008.81
2018-11-27T09:30:09.678Z,102009.23
2018-11-27T09:31:10.081Z,102009.89
2018-11-27T09:32:10.499Z,102010.30
2018-11-27T09:33:10.932Z,102010.47
2018-11-27T09:34:11.395Z,102010.72
2018-11-27T09:35:11.951Z,102011.48
2018-11-27T09:36:12.384Z,102011.73
2018-11-27T09:37:12.977Z,102011.81
2018-11-27T09:38:13.698Z,102012.73
2018-11-27T09:39:14.236Z,102012.95
2018-11-27T09:40:14.879Z,102013.55
2018-11-27T09:41:15.717Z,102014.48
2018-11-27T09:42:16.233Z,102014.30
2018-11-27T09:43:16.726Z,102014.80
2018-11-27T09:44:16.853Z,102015.12
2018-11-27T09:45:17.421Z,102015.47
2018-11-27T09:46:17.785Z,102015.55
2018-11-27T09:47:18.591Z,102015.94
2018-11-27T09:48:18.998Z,102016.46
2018-11-27T09:49:19.603Z,102016.44
2018-11-27T09:50:20.135Z,102017.02
2018-11-27T09:51:20.510Z,102017.03
2018-11-27T09:52:21.004Z,102017.10
2018-11-27T09:53:21.444Z,102017.51
2018-11-27T09:54:21.983Z,102018.06
2018-11-27T09:55:22.778Z,102017.89
2018-11-27T09:56:23.228Z,102018.74
2018-11-27T09:57:23.819Z,102019.23
2018-11-27T09:58:24.314Z,102019.37
2018-11-27T09:59:24.925Z,102019.87
2018-11-27T09:59:33.445Z,102021.67
2018-11-27T10:00:33.975Z,102026.37
2018-11-27T10:01:34.373Z,102026.48
2018-11-27T10:02:34.887Z,102026.40
2018-11-27T10:03:35.368Z,102026.64
2018-11-27T10:04:35.816Z,102026.75
2018-11-27T10:05:36.180Z,102026.92
2018-11-27T10:06:36.719Z,102027.25
2018-11-27T10:07:37.170Z,102027.09
2018-11-27T10:08:37.748Z,102027.64
2018-11-27T10:09:38.248Z,102027.73
2018-11-27T10:10:38.622Z,102028.00
2018-11-27T10:11:39.225Z,102028.31
2018-11-27T10:12:39.842Z,102028.33
2018-11-27T10:13:40.762Z,102028.73
2018-11-27T10:14:41.623Z,102028.81
2018-11-27T10:15:42.040Z,102028.66
2018-11-27T10:16:42.549Z,102028.55
2018-11-27T10:17:42.877Z,102028.30
2018-11-27T10:18:43.495Z,102027.89
2018-11-27T10:19:43.888Z,102028.23
2018-11-27T10:20:44.555Z,102027.45
2018-11-27T10:21:45.169Z,102027.30
2018-11-27T10:22:45.799Z,102027.11
2018-11-27T10:23:46.532Z,102027.72
2018-11-27T10:24:47.262Z,102027.86
2018-11-27T10:25:47.809Z,102027.77
2018-11-27T10:26:48.196Z,102028.11
2018-11-27T10:27:48.682Z,102028.02
2018-11-27T10:28:49.176Z,102027.77
2018-11-27T10:29:50.072Z,102028.28
2018-11-27T10:30:50.555Z,102028.45
2018-11-27T10:31:51.359Z,102028.36
2018-11-27T10:32:51.961Z,102028.19
2018-11-27T10:33:52.440Z,102028.17
2018-11-27T10:34:53.136Z,102027.50
2018-11-27T10:35:53.423Z,102027.52
2018-11-27T10:36:53.899Z,102026.98
2018-11-27T10:37:54.307Z,102026.34
2018-11-27T10:38:55.098Z,102025.65
2018-11-27T10:39:55.396Z,102024.71
2018-11-27T10:40:55.948Z,102024.38
2018-11-27T10:41:56.452Z,102023.27
2018-11-27T10:42:57.222Z,102022.77
2018-11-27T10:43:57.951Z,102021.70
2018-11-27T10:44:58.747Z,102021.02
2018-11-27T10:45:07.165Z,102010.73
2018-11-27T10:46:08.589Z,102004.70
2018-11-27T10:47:09.031Z,102004.28
2018-11-27T10:48:09.574Z,102004.61
2018-11-27T10:49:10.365Z,102004.55
2018-11-27T10:50:10.945Z,102004.38
2018-11-27T10:51:11.573Z,102004.81
2018-11-27T10:52:11.965Z,102004.64
2018-11-27T10:53:12.350Z,102004.73
2018-11-27T10:54:12.872Z,102004.47
2018-11-27T10:55:13.782Z,102004.41
2018-11-27T10:56:13.813Z,102004.83
2018-11-27T10:57:13.927Z,102004.77
2018-11-27T10:58:14.843Z,102004.69
2018-11-27T10:59:15.406Z,102005.45
2018-11-27T11:00:15.959Z,102005.05
2018-11-27T11:01:16.786Z,102005.55
2018-11-27T11:02:17.230Z,102005.47
2018-11-27T11:03:17.762Z,102005.82
2018-11-27T11:04:18.204Z,102005.34
2018-11-27T11:05:18.704Z,102005.38
2018-11-27T11:06:19.371Z,102005.22
2018-11-27T11:07:19.972Z,102005.06
2018-11-27T11:08:20.499Z,102005.33
2018-11-27T11:09:21.101Z,102005.31
2018-11-27T11:10:21.814Z,102005.59
2018-11-27T11:11:22.336Z,102005.61
2018-11-27T11:12:22.757Z,102005.70
2018-11-27T11:13:23.223Z,102006.39
2018-11-27T11:14:23.626Z,102007.65
2018-11-27T11:15:24.131Z,102007.59
2018-11-27T11:16:24.886Z,102008.03
2018-11-27T11:17:25.541Z,102008.75